createdAt,value
2018-09-21T00:00:35.501Z,0
2018-09-21T00:01:35.362Z,0
2018-09-21T00:02:35.419Z,0
2018-09-21T00:03:35.416Z,0
2018-09-21T00:04:35.630Z,0
2018-09-21T00:05:35.579Z,0
2018-09-21T00:06:35.577Z,0
2018-09-21T00:07:35.832Z,0
2018-09-21T00:08:35.787Z,0
2018-09-21T00:09:35.814Z,0
2018-09-21T00:10:35.923Z,0
2018-09-21T00:12:36.019Z,0
2018-09-21T00:13:36.121Z,0
2018-09-21T00:14:36.221Z,0
2018-09-21T00:15:36.283Z,0
2018-09-21T00:16:36.426Z,0
2018-09-21T00:17:36.552Z,0
2018-09-21T00:18:36.557Z,0
2018-09-21T00:19:36.617Z,0
2018-09-21T00:20:36.651Z,0
2018-09-21T00:21:36.738Z,0
2018-09-21T00:22:36.810Z,0
2018-09-21T00:23:36.936Z,0
2018-09-21T00:24:37.100Z,0
2018-09-21T00:25:37.094Z,0
2018-09-21T00:26:37.279Z,0
2018-09-21T00:27:37.241Z,0
2018-09-21T00:28:37.284Z,0
2018-09-21T00:29:37.452Z,0
2018-09-21T00:30:37.452Z,0
2018-09-21T00:31:37.431Z,0
2018-09-21T00:32:37.446Z,0
2018-09-21T00:33:37.623Z,0
2018-09-21T00:34:37.596Z,0
2018-09-21T00:35:38.815Z,0
2018-09-21T00:36:37.762Z,0
2018-09-21T00:37:37.933Z,0
2018-09-21T00:38:37.829Z,0
2018-09-21T00:39:37.811Z,0
2018-09-21T00:40:37.935Z,0
2018-09-21T00:41:39.030Z,0
2018-09-21T00:42:38.243Z,0
2018-09-21T00:43:38.212Z,0
2018-09-21T00:44:38.317Z,0
2018-09-21T00:45:38.395Z,0
2018-09-21T00:46:38.757Z,0
2018-09-21T00:47:38.571Z,0
2018-09-21T00:48:38.678Z,0
2018-09-21T00:49:38.783Z,0
2018-09-21T00:50:38.986Z,0
2018-09-21T00:51:39.070Z,0
2018-09-21T00:52:39.131Z,0
2018-09-21T00:53:39.232Z,0
2018-09-21T00:54:39.295Z,0
2018-09-21T00:55:39.244Z,0
2018-09-21T00:56:39.412Z,0
2018-09-21T00:57:39.460Z,0
2018-09-21T00:58:39.587Z,0
2018-09-21T00:59:39.593Z,0
2018-09-21T01:00:39.593Z,0
2018-09-21T01:01:39.721Z,0
2018-09-21T01:02:39.682Z,0
2018-09-21T01:03:39.781Z,0
2018-09-21T01:04:39.807Z,0
2018-09-21T01:05:57.742Z,0
2018-09-21T01:06:39.997Z,0
2018-09-21T01:07:40.091Z,0
2018-09-21T01:08:40.224Z,0
2018-09-21T01:09:40.451Z,0
2018-09-21T01:10:40.380Z,0
2018-09-21T01:11:40.495Z,0
2018-09-21T01:12:40.699Z,0
2018-09-21T01:13:40.718Z,0
2018-09-21T01:14:40.689Z,0
2018-09-21T01:15:40.854Z,0
2018-09-21T01:16:41.039Z,0
2018-09-21T01:17:40.958Z,0
2018-09-21T01:18:40.904Z,0
2018-09-21T01:19:40.947Z,0
2018-09-21T01:20:41.141Z,0
2018-09-21T01:21:41.019Z,0
2018-09-21T01:22:41.048Z,0
2018-09-21T01:23:41.093Z,0
2018-09-21T01:24:41.131Z,0
2018-09-21T01:25:41.248Z,0
2018-09-21T01:26:41.287Z,0
2018-09-21T01:27:41.550Z,0
2018-09-21T01:28:41.535Z,0
2018-09-21T01:29:41.527Z,0
2018-09-21T01:30:41.552Z,0
2018-09-21T01:31:41.582Z,0
2018-09-21T01:32:41.706Z,0
2018-09-21T01:33:41.712Z,0
2018-09-21T01:34:41.839Z,0
2018-09-21T01:35:41.954Z,0
2018-09-21T01:36:42.267Z,0
2018-09-21T01:37:42.137Z,0
2018-09-21T01:38:42.200Z,0
2018-09-21T01:39:42.377Z,0
2018-09-21T01:40:42.493Z,0
2018-09-21T01:41:42.566Z,0
2018-09-21T01:42:42.710Z,0
2018-09-21T01:43:42.743Z,0
2018-09-21T01:44:42.884Z,0
2018-09-21T01:45:42.935Z,0
2018-09-21T01:46:43.094Z,0
2018-09-21T01:47:43.261Z,0
2018-09-21T01:48:43.434Z,0
2018-09-21T01:49:43.403Z,0
2018-09-21T01:50:43.463Z,0
2018-09-21T01:51:43.596Z,0
2018-09-21T01:52:43.744Z,0
2018-09-21T01:53:43.585Z,0
2018-09-21T01:54:43.707Z,0
2018-09-21T01:55:43.860Z,0
2018-09-21T01:56:43.893Z,0
2018-09-21T01:57:44.031Z,0
2018-09-21T01:58:44.085Z,0
2018-09-21T01:59:44.252Z,0
2018-09-21T02:00:44.080Z,0
2018-09-21T02:01:44.203Z,0
2018-09-21T02:02:44.368Z,0
2018-09-21T02:03:44.591Z,0
2018-09-21T02:04:44.434Z,0
2018-09-21T02:05:44.462Z,0
2018-09-21T02:06:44.630Z,0
2018-09-21T02:07:44.631Z,0
2018-09-21T02:08:44.692Z,0
2018-09-21T02:09:44.751Z,0
2018-09-21T02:11:02.915Z,0
2018-09-21T02:11:44.949Z,0
2018-09-21T02:12:45.134Z,0
2018-09-21T02:13:45.331Z,0
2018-09-21T02:14:45.402Z,0
2018-09-21T02:15:45.360Z,0
2018-09-21T02:16:45.434Z,0
2018-09-21T02:17:45.593Z,0
2018-09-21T02:18:45.690Z,0
2018-09-21T02:19:45.704Z,0
2018-09-21T02:20:45.851Z,0
2018-09-21T02:21:45.898Z,0
2018-09-21T02:22:46.104Z,0
2018-09-21T02:23:47.090Z,0
2018-09-21T02:24:46.055Z,0
2018-09-21T02:25:46.159Z,0
2018-09-21T02:26:46.186Z,0
2018-09-21T02:27:46.227Z,0
2018-09-21T02:28:46.442Z,0
2018-09-21T02:29:46.619Z,0
2018-09-21T02:30:46.556Z,0
2018-09-21T02:31:46.599Z,0
2018-09-21T02:32:46.695Z,0
2018-09-21T02:33:46.913Z,0
2018-09-21T02:34:46.903Z,0
2018-09-21T02:35:47.064Z,0
2018-09-21T02:36:47.082Z,0
2018-09-21T02:37:47.242Z,0
2018-09-21T02:38:47.236Z,0
2018-09-21T02:39:47.272Z,0
2018-09-21T02:40:47.341Z,0
2018-09-21T02:41:47.427Z,0
2018-09-21T02:43:05.487Z,0
2018-09-21T02:43:47.639Z,0
2018-09-21T02:44:47.622Z,0
2018-09-21T02:45:47.664Z,0
2018-09-21T02:46:47.756Z,0
2018-09-21T02:47:47.709Z,0
2018-09-21T02:48:47.890Z,0
2018-09-21T02:49:47.856Z,0
2018-09-21T02:50:48.064Z,0
2018-09-21T02:51:47.993Z,0
2018-09-21T02:52:47.987Z,0
2018-09-21T02:53:48.240Z,0
2018-09-21T02:54:48.233Z,0
2018-09-21T02:55:48.280Z,0
2018-09-21T02:56:48.341Z,0
2018-09-21T02:57:48.489Z,0
2018-09-21T02:58:48.587Z,0
2018-09-21T02:59:48.652Z,0
2018-09-21T03:00:49.937Z,0
2018-09-21T03:01:48.747Z,0
2018-09-21T03:02:48.775Z,0
2018-09-21T03:03:48.792Z,0
2018-09-21T03:04:49.082Z,0
2018-09-21T03:05:49.228Z,0
2018-09-21T03:06:49.175Z,0
2018-09-21T03:07:49.214Z,0
2018-09-21T03:09:07.338Z,0
2018-09-21T03:09:49.386Z,0
2018-09-21T03:10:49.532Z,0
2018-09-21T03:11:49.595Z,0
2018-09-21T03:12:49.686Z,0
2018-09-21T03:13:49.631Z,0
2018-09-21T03:14:49.653Z,0
2018-09-21T03:15:49.904Z,0
2018-09-21T03:16:49.861Z,0
2018-09-21T03:17:49.840Z,0
2018-09-21T03:18:49.892Z,0
2018-09-21T03:19:50.119Z,0
2018-09-21T03:20:50.115Z,0
2018-09-21T03:21:50.167Z,0
2018-09-21T03:22:50.315Z,0
2018-09-21T03:23:50.372Z,0
2018-09-21T03:24:51.293Z,0
2018-09-21T03:25:50.318Z,0
2018-09-21T03:26:50.569Z,0
2018-09-21T03:27:50.794Z,0
2018-09-21T03:28:50.575Z,0
2018-09-21T03:29:50.591Z,0
2018-09-21T03:30:50.805Z,0
2018-09-21T03:31:50.836Z,0
2018-09-21T03:32:50.892Z,0
2018-09-21T03:33:50.995Z,0
2018-09-21T03:34:51.097Z,0
2018-09-21T03:35:51.148Z,0
2018-09-21T03:36:51.155Z,0
2018-09-21T03:37:51.183Z,0
2018-09-21T03:38:51.226Z,0
2018-09-21T03:39:51.489Z,0
2018-09-21T03:40:51.333Z,0
2018-09-21T03:41:51.388Z,0
2018-09-21T03:42:51.556Z,0
2018-09-21T03:43:51.784Z,0
2018-09-21T03:44:51.781Z,0
2018-09-21T03:45:51.836Z,0
2018-09-21T03:46:51.924Z,0
2018-09-21T03:47:52.022Z,0
2018-09-21T03:48:51.967Z,0
2018-09-21T03:49:52.090Z,0
2018-09-21T03:50:52.268Z,0
2018-09-21T03:51:52.313Z,0
2018-09-21T03:52:52.397Z,0
2018-09-21T03:53:52.535Z,0
2018-09-21T03:54:52.665Z,0
2018-09-21T03:55:52.887Z,0
2018-09-21T03:56:52.830Z,0
2018-09-21T03:57:53.026Z,0
2018-09-21T03:58:53.179Z,0
2018-09-21T03:59:53.026Z,0
2018-09-21T04:00:53.150Z,0
2018-09-21T04:01:53.189Z,0
2018-09-21T04:02:53.498Z,0
2018-09-21T04:03:53.425Z,0
2018-09-21T04:04:53.509Z,0
2018-09-21T04:05:54.564Z,0
2018-09-21T04:06:53.815Z,0
2018-09-21T04:07:53.817Z,0
2018-09-21T04:08:53.932Z,0
2018-09-21T04:10:54.258Z,0
2018-09-21T04:11:54.158Z,0
2018-09-21T04:12:54.193Z,0
2018-09-21T04:13:54.331Z,0
2018-09-21T04:14:54.476Z,0
2018-09-21T04:16:12.341Z,0
2018-09-21T04:16:54.479Z,0
2018-09-21T04:17:54.768Z,0
2018-09-21T04:18:54.579Z,0
2018-09-21T04:19:54.643Z,0
2018-09-21T04:20:54.693Z,0
2018-09-21T04:21:54.589Z,0
2018-09-21T04:22:54.746Z,0
2018-09-21T04:23:54.797Z,0
2018-09-21T04:24:55.055Z,0
2018-09-21T04:25:55.002Z,0
2018-09-21T04:26:55.078Z,0
2018-09-21T04:27:55.116Z,0
2018-09-21T04:28:55.243Z,0
2018-09-21T04:29:55.250Z,0
2018-09-21T04:30:55.318Z,0
2018-09-21T04:31:55.348Z,0
2018-09-21T04:32:56.441Z,0
2018-09-21T04:33:55.570Z,0
2018-09-21T04:35:13.543Z,0
2018-09-21T04:35:55.711Z,0
2018-09-21T04:36:55.681Z,0
2018-09-21T04:37:55.788Z,0
2018-09-21T04:38:55.740Z,0
2018-09-21T04:39:55.747Z,0
2018-09-21T04:40:55.873Z,0
2018-09-21T04:41:55.952Z,0
2018-09-21T04:42:55.940Z,0
2018-09-21T04:43:56.117Z,0
2018-09-21T04:44:57.245Z,0
2018-09-21T04:45:56.484Z,0
2018-09-21T04:46:56.421Z,0
2018-09-21T04:47:56.552Z,0
2018-09-21T04:48:56.787Z,0
2018-09-21T04:49:56.653Z,0
2018-09-21T04:50:56.689Z,0
2018-09-21T04:51:56.774Z,0
2018-09-21T04:52:57.029Z,0
2018-09-21T04:53:57.001Z,0
2018-09-21T04:54:57.111Z,0
2018-09-21T04:55:57.175Z,0
2018-09-21T04:56:57.285Z,0
2018-09-21T04:57:57.318Z,0
2018-09-21T04:58:57.379Z,0
2018-09-21T04:59:57.538Z,0
2018-09-21T05:00:57.448Z,0
2018-09-21T05:01:57.521Z,0
2018-09-21T05:02:57.510Z,0
2018-09-21T05:03:57.595Z,0
2018-09-21T05:04:57.610Z,0
2018-09-21T05:05:57.752Z,0
2018-09-21T05:06:57.939Z,0
2018-09-21T05:07:57.957Z,0
2018-09-21T05:08:58.874Z,0
2018-09-21T05:09:57.901Z,0
2018-09-21T05:10:58.130Z,0
2018-09-21T05:12:15.955Z,0
2018-09-21T05:12:58.122Z,0
2018-09-21T05:13:58.202Z,5.625
2018-09-21T05:14:58.374Z,5.625
2018-09-21T05:15:58.478Z,5.625
2018-09-21T05:16:58.492Z,5.625
2018-09-21T05:17:58.563Z,5.625
2018-09-21T05:19:59.766Z,5.625
2018-09-21T05:20:58.860Z,5.625
2018-09-21T05:21:58.927Z,5.625
2018-09-21T05:22:58.948Z,5.625
2018-09-21T05:23:59.221Z,5.625
2018-09-21T05:24:59.136Z,11.25
2018-09-21T05:25:59.309Z,11.25
2018-09-21T05:26:59.257Z,11.25
2018-09-21T05:27:59.314Z,11.25
2018-09-21T05:28:59.437Z,11.25
2018-09-21T05:29:59.590Z,11.25
2018-09-21T05:30:59.735Z,11.25
2018-09-21T05:31:59.699Z,11.25
2018-09-21T05:32:59.854Z,11.25
2018-09-21T05:33:59.924Z,16.875
2018-09-21T05:35:00.010Z,16.875
2018-09-21T05:36:00.161Z,16.875
2018-09-21T05:37:00.126Z,16.875
2018-09-21T05:38:00.284Z,16.875
2018-09-21T05:39:18.307Z,16.875
2018-09-21T05:40:00.571Z,16.875
2018-09-21T05:41:00.543Z,16.875
2018-09-21T05:42:00.659Z,16.875
2018-09-21T05:43:00.827Z,22.5
2018-09-21T05:45:00.977Z,22.5
2018-09-21T05:46:01.086Z,22.5
2018-09-21T05:47:01.349Z,22.5
2018-09-21T05:48:01.367Z,22.5
2018-09-21T05:49:01.448Z,22.5
2018-09-21T05:50:01.497Z,22.5
2018-09-21T05:51:01.572Z,22.5
2018-09-21T05:52:01.650Z,28.125
2018-09-21T05:53:01.754Z,28.125
2018-09-21T05:54:01.926Z,28.125
2018-09-21T05:55:02.040Z,28.125
2018-09-21T05:56:02.051Z,28.125
2018-09-21T05:57:02.225Z,28.125
2018-09-21T05:58:02.339Z,28.125
2018-09-21T06:00:02.578Z,28.125
2018-09-21T06:01:02.590Z,33.75
2018-09-21T06:02:02.675Z,33.75
2018-09-21T06:03:02.929Z,33.75
2018-09-21T06:04:02.928Z,33.75
2018-09-21T06:05:03.003Z,33.75
2018-09-21T06:06:03.106Z,33.75
2018-09-21T06:07:03.354Z,33.75
2018-09-21T06:08:03.418Z,39.375
2018-09-21T06:09:03.414Z,39.375
2018-09-21T06:10:03.428Z,39.375
2018-09-21T06:11:03.645Z,39.375
2018-09-21T06:12:03.645Z,39.375
2018-09-21T06:13:03.778Z,39.375
2018-09-21T06:14:03.846Z,39.375
2018-09-21T06:15:03.788Z,39.375
2018-09-21T06:16:03.854Z,45
2018-09-21T06:17:03.896Z,45
2018-09-21T06:18:04.228Z,45
2018-09-21T06:19:04.037Z,45
2018-09-21T06:20:11.978Z,45
2018-09-21T06:21:04.172Z,45
2018-09-21T06:22:04.211Z,45
2018-09-21T06:23:04.296Z,45
2018-09-21T06:24:04.372Z,45
2018-09-21T06:25:04.450Z,45
2018-09-21T06:26:04.731Z,45
2018-09-21T06:27:04.746Z,50.625
2018-09-21T06:28:04.727Z,50.625
2018-09-21T06:29:22.831Z,50.625
2018-09-21T06:30:05.979Z,50.625
2018-09-21T06:31:05.129Z,50.625
2018-09-21T06:32:05.323Z,50.625
2018-09-21T06:33:05.405Z,50.625
2018-09-21T06:34:05.610Z,50.625
2018-09-21T06:35:05.712Z,56.25
2018-09-21T06:36:05.626Z,56.25
2018-09-21T06:37:05.569Z,56.25
2018-09-21T06:38:05.730Z,56.25
2018-09-21T06:39:05.935Z,56.25
2018-09-21T06:40:05.826Z,56.25
2018-09-21T06:41:05.957Z,56.25
2018-09-21T06:42:23.944Z,56.25
2018-09-21T06:43:06.211Z,56.25
2018-09-21T06:44:06.207Z,56.25
2018-09-21T06:45:06.185Z,61.875
2018-09-21T06:46:06.276Z,61.875
2018-09-21T06:47:06.473Z,61.875
2018-09-21T06:48:06.470Z,61.875
2018-09-21T06:49:06.541Z,61.875
2018-09-21T06:50:06.547Z,61.875
2018-09-21T06:51:06.513Z,61.875
2018-09-21T06:52:06.632Z,61.875
2018-09-21T06:53:06.800Z,61.875
2018-09-21T06:54:07.102Z,67.5
2018-09-21T06:55:07.064Z,67.5
2018-09-21T06:56:07.214Z,67.5
2018-09-21T06:57:07.168Z,67.5
2018-09-21T06:58:07.331Z,67.5
2018-09-21T06:59:07.303Z,67.5
2018-09-21T07:00:07.463Z,67.5
2018-09-21T07:01:07.679Z,67.5
2018-09-21T07:02:07.768Z,67.5
2018-09-21T07:03:07.753Z,73.125
2018-09-21T07:04:07.884Z,73.125
2018-09-21T07:05:08.072Z,73.125
2018-09-21T07:07:08.158Z,73.125
2018-09-21T07:08:08.198Z,73.125
2018-09-21T07:09:08.395Z,73.125
2018-09-21T07:10:08.619Z,73.125
2018-09-21T07:11:08.460Z,73.125
2018-09-21T07:12:08.480Z,73.125
2018-09-21T07:13:08.766Z,73.125
2018-09-21T07:14:26.676Z,78.75
2018-09-21T07:15:08.851Z,78.75
2018-09-21T07:16:09.870Z,73.125
2018-09-21T07:17:08.875Z,78.75
2018-09-21T07:18:08.995Z,78.75
2018-09-21T07:19:09.184Z,78.75
2018-09-21T07:20:09.214Z,78.75
2018-09-21T07:21:09.229Z,84.375
2018-09-21T07:22:09.236Z,84.375
2018-09-21T07:23:09.301Z,90
2018-09-21T07:24:09.396Z,101.25
2018-09-21T07:25:09.363Z,123.75
2018-09-21T07:26:09.475Z,157.5
2018-09-21T07:27:09.530Z,163.125
2018-09-21T07:28:09.603Z,129.375
2018-09-21T07:29:09.570Z,101.25
2018-09-21T07:30:09.605Z,90
2018-09-21T07:31:09.732Z,95.625
2018-09-21T07:32:09.684Z,90
2018-09-21T07:33:09.778Z,90
2018-09-21T07:34:09.732Z,90
2018-09-21T07:35:09.884Z,90
2018-09-21T07:36:09.951Z,90
2018-09-21T07:37:10.116Z,90
2018-09-21T07:38:10.081Z,90
2018-09-21T07:39:10.241Z,90
2018-09-21T07:40:10.473Z,90
2018-09-21T07:41:10.393Z,95.625
2018-09-21T07:42:13.541Z,95.625
2018-09-21T07:43:10.562Z,95.625
2018-09-21T07:44:10.852Z,95.625
2018-09-21T07:45:10.710Z,95.625
2018-09-21T07:46:10.808Z,95.625
2018-09-21T07:47:10.970Z,95.625
2018-09-21T07:48:11.015Z,95.625
2018-09-21T07:49:10.987Z,95.625
2018-09-21T07:50:11.048Z,101.25
2018-09-21T07:51:11.250Z,101.25
2018-09-21T07:52:11.329Z,95.625
2018-09-21T07:53:11.359Z,101.25
2018-09-21T07:54:11.425Z,106.875
2018-09-21T07:55:11.590Z,112.5
2018-09-21T07:56:11.464Z,118.125
2018-09-21T07:57:11.515Z,123.75
2018-09-21T07:58:11.674Z,129.375
2018-09-21T08:00:11.789Z,129.375
2018-09-21T08:01:11.879Z,129.375
2018-09-21T08:02:12.081Z,129.375
2018-09-21T08:03:12.209Z,129.375
2018-09-21T08:04:12.192Z,129.375
2018-09-21T08:05:12.220Z,129.375
2018-09-21T08:06:12.449Z,129.375
2018-09-21T08:07:12.563Z,129.375
2018-09-21T08:08:12.567Z,129.375
2018-09-21T08:09:12.628Z,129.375
2018-09-21T08:10:12.792Z,129.375
2018-09-21T08:11:12.825Z,129.375
2018-09-21T08:12:12.840Z,129.375
2018-09-21T08:13:12.883Z,135
2018-09-21T08:14:12.947Z,129.375
2018-09-21T08:15:12.955Z,135
2018-09-21T08:16:12.982Z,129.375
2018-09-21T08:17:13.176Z,129.375
2018-09-21T08:18:12.975Z,135
2018-09-21T08:19:12.980Z,135
2018-09-21T08:20:13.137Z,135
2018-09-21T08:21:13.258Z,140.625
2018-09-21T08:22:13.267Z,140.625
2018-09-21T08:23:13.281Z,140.625
2018-09-21T08:24:13.369Z,140.625
2018-09-21T08:25:13.422Z,140.625
2018-09-21T08:26:13.350Z,146.25
2018-09-21T08:27:13.524Z,146.25
2018-09-21T08:28:13.488Z,146.25
2018-09-21T08:29:13.747Z,146.25
2018-09-21T08:30:13.805Z,146.25
2018-09-21T08:31:13.762Z,146.25
2018-09-21T08:32:13.908Z,146.25
2018-09-21T08:33:13.908Z,146.25
2018-09-21T08:34:14.129Z,146.25
2018-09-21T08:35:13.920Z,151.875
2018-09-21T08:36:14.050Z,151.875
2018-09-21T08:37:14.222Z,157.5
2018-09-21T08:38:14.114Z,157.5
2018-09-21T08:39:14.297Z,163.125
2018-09-21T08:40:14.254Z,163.125
2018-09-21T08:41:14.348Z,168.75
2018-09-21T08:42:14.324Z,168.75
2018-09-21T08:43:14.526Z,174.375
2018-09-21T08:44:14.618Z,174.375
2018-09-21T08:45:14.832Z,174.375
2018-09-21T08:46:14.655Z,174.375
2018-09-21T08:47:14.787Z,174.375
2018-09-21T08:48:15.083Z,168.75
2018-09-21T08:49:15.187Z,151.875
2018-09-21T08:50:15.023Z,135
2018-09-21T08:51:15.173Z,157.5
2018-09-21T08:52:15.348Z,163.125
2018-09-21T08:53:15.315Z,174.375
2018-09-21T08:54:15.460Z,146.25
2018-09-21T08:55:15.443Z,140.625
2018-09-21T08:56:15.708Z,140.625
2018-09-21T08:57:15.704Z,140.625
2018-09-21T08:58:15.858Z,140.625
2018-09-21T08:59:16.053Z,146.25
2018-09-21T09:00:16.053Z,151.875
2018-09-21T09:01:16.008Z,151.875
2018-09-21T09:02:16.153Z,151.875
2018-09-21T09:03:16.289Z,157.5
2018-09-21T09:04:16.206Z,151.875
2018-09-21T09:05:16.296Z,163.125
2018-09-21T09:06:16.396Z,163.125
2018-09-21T09:07:16.475Z,168.75
2018-09-21T09:08:16.451Z,174.375
2018-09-21T09:09:16.512Z,180
2018-09-21T09:10:17.478Z,174.375
2018-09-21T09:11:16.519Z,168.75
2018-09-21T09:12:16.504Z,180
2018-09-21T09:13:16.640Z,180
2018-09-21T09:14:16.906Z,151.875
2018-09-21T09:15:16.879Z,146.25
2018-09-21T09:16:17.014Z,146.25
2018-09-21T09:17:17.012Z,146.25
2018-09-21T09:18:17.235Z,151.875
2018-09-21T09:19:17.318Z,157.5
2018-09-21T09:20:17.378Z,168.75
2018-09-21T09:21:17.378Z,180
2018-09-21T09:22:17.590Z,185.625
2018-09-21T09:23:17.675Z,196.875
2018-09-21T09:24:17.710Z,208.125
2018-09-21T09:25:17.659Z,213.75
2018-09-21T09:26:17.966Z,208.125
2018-09-21T09:27:17.986Z,208.125
2018-09-21T09:28:17.954Z,208.125
2018-09-21T09:29:18.125Z,196.875
2018-09-21T09:31:18.471Z,191.25
2018-09-21T09:32:18.473Z,191.25
2018-09-21T09:33:18.465Z,196.875
2018-09-21T09:34:18.501Z,208.125
2018-09-21T09:35:18.695Z,219.375
2018-09-21T09:36:18.609Z,225
2018-09-21T09:37:18.750Z,225
2018-09-21T09:38:18.893Z,225
2018-09-21T09:39:19.119Z,225
2018-09-21T09:40:19.192Z,225
2018-09-21T09:41:19.225Z,219.375
2018-09-21T09:42:19.383Z,174.375
2018-09-21T09:43:19.515Z,180
2018-09-21T09:44:19.473Z,196.875
2018-09-21T09:45:19.557Z,219.375
2018-09-21T09:46:19.636Z,225
2018-09-21T09:47:19.783Z,225
2018-09-21T09:48:19.650Z,225
2018-09-21T09:49:19.776Z,230.625
2018-09-21T09:50:19.882Z,225
2018-09-21T09:51:19.768Z,225
2018-09-21T09:52:19.890Z,219.375
2018-09-21T09:53:19.950Z,219.375
2018-09-21T09:54:20.906Z,219.375
2018-09-21T09:55:20.041Z,230.625
2018-09-21T09:56:20.176Z,230.625
2018-09-21T09:57:20.269Z,241.875
2018-09-21T09:58:20.276Z,247.5
2018-09-21T09:59:20.249Z,247.5
2018-09-21T10:00:20.412Z,253.125
2018-09-21T10:02:38.523Z,247.5
2018-09-21T10:03:20.661Z,247.5
2018-09-21T10:04:20.659Z,236.25
2018-09-21T10:05:20.828Z,225
2018-09-21T10:06:20.709Z,208.125
2018-09-21T10:07:20.709Z,196.875
2018-09-21T10:08:20.703Z,213.75
2018-09-21T10:09:20.728Z,219.375
2018-09-21T10:10:20.773Z,208.125
2018-09-21T10:11:20.766Z,225
2018-09-21T10:12:38.787Z,241.875
2018-09-21T10:13:20.935Z,247.5
2018-09-21T10:14:21.036Z,247.5
2018-09-21T10:15:21.161Z,247.5
2018-09-21T10:16:21.217Z,247.5
2018-09-21T10:17:21.243Z,247.5
2018-09-21T10:18:21.227Z,247.5
2018-09-21T10:19:21.224Z,247.5
2018-09-21T10:20:21.371Z,253.125
2018-09-21T10:21:21.456Z,253.125
2018-09-21T10:22:21.444Z,236.25
2018-09-21T10:23:21.424Z,208.125
2018-09-21T10:24:22.517Z,196.875
2018-09-21T10:25:21.668Z,180
2018-09-21T10:26:21.836Z,168.75
2018-09-21T10:27:21.953Z,157.5
2018-09-21T10:28:22.258Z,168.75
2018-09-21T10:29:21.945Z,202.5
2018-09-21T10:30:21.962Z,236.25
2018-09-21T10:31:23.046Z,241.875
2018-09-21T10:32:21.999Z,247.5
2018-09-21T10:33:22.108Z,225
2018-09-21T10:34:21.994Z,230.625
2018-09-21T10:35:22.021Z,225
2018-09-21T10:36:22.025Z,219.375
2018-09-21T10:37:22.046Z,208.125
2018-09-21T10:38:22.255Z,202.5
2018-09-21T10:39:22.413Z,219.375
2018-09-21T10:40:22.356Z,247.5
2018-09-21T10:41:22.562Z,230.625
2018-09-21T10:42:22.626Z,241.875
2018-09-21T10:43:22.596Z,258.75
2018-09-21T10:44:22.694Z,258.75
2018-09-21T10:45:22.776Z,258.75
2018-09-21T10:46:22.796Z,258.75
2018-09-21T10:47:22.802Z,264.375
2018-09-21T10:48:22.848Z,264.375
2018-09-21T10:49:23.169Z,241.875
2018-09-21T10:50:23.141Z,230.625
2018-09-21T10:51:23.186Z,247.5
2018-09-21T10:52:23.163Z,247.5
2018-09-21T10:53:23.339Z,236.25
2018-09-21T10:54:23.311Z,236.25
2018-09-21T10:55:23.360Z,264.375
2018-09-21T10:56:23.513Z,275.625
2018-09-21T10:57:41.567Z,286.875
2018-09-21T10:58:23.753Z,270
2018-09-21T11:00:23.946Z,270
2018-09-21T11:01:24.033Z,286.875
2018-09-21T11:02:24.063Z,303.75
2018-09-21T11:03:24.094Z,298.125
2018-09-21T11:04:24.350Z,309.375
2018-09-21T11:05:24.491Z,303.75
2018-09-21T11:06:24.469Z,298.125
2018-09-21T11:07:24.584Z,286.875
2018-09-21T11:08:24.576Z,275.625
2018-09-21T11:09:24.555Z,281.25
2018-09-21T11:10:24.568Z,281.25
2018-09-21T11:11:24.594Z,264.375
2018-09-21T11:12:24.777Z,270
2018-09-21T11:13:24.798Z,281.25
2018-09-21T11:14:24.827Z,292.5
2018-09-21T11:15:24.847Z,309.375
2018-09-21T11:16:24.827Z,303.75
2018-09-21T11:17:24.878Z,292.5
2018-09-21T11:18:24.883Z,270
2018-09-21T11:19:25.116Z,225
2018-09-21T11:20:25.149Z,281.25
2018-09-21T11:21:25.174Z,253.125
2018-09-21T11:22:25.278Z,236.25
2018-09-21T11:23:25.263Z,225
2018-09-21T11:24:25.500Z,236.25
2018-09-21T11:25:25.456Z,253.125
2018-09-21T11:26:25.496Z,247.5
2018-09-21T11:27:25.583Z,219.375
2018-09-21T11:28:25.761Z,208.125
2018-09-21T11:29:25.755Z,180
2018-09-21T11:30:25.769Z,185.625
2018-09-21T11:31:25.962Z,225
2018-09-21T11:32:26.032Z,236.25
2018-09-21T11:33:25.993Z,236.25
2018-09-21T11:34:26.015Z,230.625
2018-09-21T11:35:26.060Z,236.25
2018-09-21T11:36:26.051Z,241.875
2018-09-21T11:37:26.120Z,225
2018-09-21T11:38:26.311Z,208.125
2018-09-21T11:39:26.162Z,180
2018-09-21T11:40:26.267Z,168.75
2018-09-21T11:41:26.278Z,174.375
2018-09-21T11:42:26.501Z,163.125
2018-09-21T11:43:26.523Z,151.875
2018-09-21T11:44:26.567Z,151.875
2018-09-21T11:45:26.575Z,151.875
2018-09-21T11:46:26.872Z,146.25
2018-09-21T11:47:44.875Z,146.25
2018-09-21T11:48:27.011Z,146.25
2018-09-21T11:49:27.029Z,140.625
2018-09-21T11:50:27.163Z,140.625
2018-09-21T11:51:27.206Z,146.25
2018-09-21T11:52:27.295Z,140.625
2018-09-21T11:53:27.497Z,140.625
2018-09-21T11:54:27.357Z,135
2018-09-21T11:55:27.418Z,135
2018-09-21T11:56:27.451Z,140.625
2018-09-21T11:57:27.484Z,140.625
2018-09-21T11:58:27.563Z,146.25
2018-09-21T12:00:27.665Z,146.25
2018-09-21T12:01:27.544Z,146.25
2018-09-21T12:02:27.645Z,140.625
2018-09-21T12:03:27.781Z,135
2018-09-21T12:04:27.805Z,129.375
2018-09-21T12:05:27.879Z,129.375
2018-09-21T12:06:27.927Z,123.75
2018-09-21T12:07:28.004Z,118.125
2018-09-21T12:08:28.182Z,118.125
2018-09-21T12:09:28.230Z,118.125
2018-09-21T12:10:28.302Z,118.125
2018-09-21T12:11:28.449Z,118.125
2018-09-21T12:12:28.476Z,118.125
2018-09-21T12:13:28.680Z,118.125
2018-09-21T12:14:28.591Z,118.125
2018-09-21T12:15:28.604Z,123.75
2018-09-21T12:16:28.656Z,129.375
2018-09-21T12:17:28.766Z,135
2018-09-21T12:18:28.883Z,140.625
2018-09-21T12:19:28.902Z,140.625
2018-09-21T12:20:29.015Z,140.625
2018-09-21T12:21:29.164Z,140.625
2018-09-21T12:22:29.121Z,151.875
2018-09-21T12:23:29.126Z,157.5
2018-09-21T12:24:29.339Z,168.75
2018-09-21T12:25:29.208Z,168.75
2018-09-21T12:26:29.424Z,157.5
2018-09-21T12:27:29.393Z,146.25
2018-09-21T12:28:29.493Z,140.625
2018-09-21T12:29:29.455Z,140.625
2018-09-21T12:30:29.650Z,135
2018-09-21T12:31:29.854Z,135
2018-09-21T12:32:29.706Z,135
2018-09-21T12:33:29.784Z,135
2018-09-21T12:34:30.786Z,129.375
2018-09-21T12:35:29.963Z,118.125
2018-09-21T12:36:30.113Z,112.5
2018-09-21T12:37:30.012Z,106.875
2018-09-21T12:38:30.129Z,106.875
2018-09-21T12:39:30.205Z,101.25
2018-09-21T12:40:30.247Z,101.25
2018-09-21T12:41:30.341Z,95.625
2018-09-21T12:42:30.609Z,95.625
2018-09-21T12:43:30.491Z,90
2018-09-21T12:44:30.629Z,84.375
2018-09-21T12:45:30.778Z,84.375
2018-09-21T12:46:30.896Z,78.75
2018-09-21T12:47:30.893Z,78.75
2018-09-21T12:48:30.922Z,78.75
2018-09-21T12:49:30.957Z,84.375
2018-09-21T12:50:31.292Z,84.375
2018-09-21T12:51:31.102Z,84.375
2018-09-21T12:52:31.200Z,84.375
2018-09-21T12:53:31.250Z,84.375
2018-09-21T12:54:31.493Z,84.375
2018-09-21T12:55:31.429Z,84.375
2018-09-21T12:56:31.498Z,84.375
2018-09-21T12:57:31.712Z,84.375
2018-09-21T12:58:31.800Z,84.375
2018-09-21T12:59:31.833Z,84.375
2018-09-21T13:00:31.888Z,84.375
2018-09-21T13:01:31.942Z,90
2018-09-21T13:02:31.983Z,90
2018-09-21T13:03:32.135Z,95.625
2018-09-21T13:04:32.231Z,95.625
2018-09-21T13:06:50.202Z,101.25
2018-09-21T13:07:32.447Z,106.875
2018-09-21T13:08:32.470Z,118.125
2018-09-21T13:09:32.546Z,123.75
2018-09-21T13:10:32.631Z,140.625
2018-09-21T13:11:32.749Z,163.125
2018-09-21T13:12:32.785Z,180
2018-09-21T13:13:32.837Z,180
2018-09-21T13:14:32.988Z,174.375
2018-09-21T13:15:32.918Z,191.25
2018-09-21T13:16:33.312Z,202.5
2018-09-21T13:17:33.024Z,191.25
2018-09-21T13:18:34.171Z,163.125
2018-09-21T13:19:33.179Z,151.875
2018-09-21T13:20:33.332Z,157.5
2018-09-21T13:21:33.536Z,140.625
2018-09-21T13:22:33.445Z,151.875
2018-09-21T13:23:34.709Z,129.375
2018-09-21T13:24:33.676Z,112.5
2018-09-21T13:25:33.968Z,106.875
2018-09-21T13:26:34.166Z,95.625
2018-09-21T13:27:34.046Z,90
2018-09-21T13:28:34.137Z,84.375
2018-09-21T13:29:34.318Z,84.375
2018-09-21T13:30:34.287Z,78.75
2018-09-21T13:31:34.377Z,78.75
2018-09-21T13:32:34.435Z,78.75
2018-09-21T13:33:34.553Z,84.375
2018-09-21T13:34:34.514Z,84.375
2018-09-21T13:35:34.518Z,95.625
2018-09-21T13:36:34.697Z,106.875